Time;durP1;ratioP1;P1;durP2;ratioP2;P2;SDS_P1;SDS_P2;PMS_P1;PMS_P2;Temp;Humidity;BMP_temperature;BMP_pressure;BME280_temperature;BME280_humidity;BME280_pressure;Samples;Min_cycle;Max_cycle;Signal;HPM_P1;HPM_P2
2021/03/20 00:00:41;;;;;;;23.35;9.55;;;;;;;2.02;77.03;102789.47;5096196;28;20383;-69
2021/03/20 00:03:07;;;;;;;24.85;10.32;;;;;;;1.93;77.64;102794.06;5092939;28;20036;-68
2021/03/20 00:05:33;;;;;;;23.55;10.07;;;;;;;1.86;77.85;102795.31;5094520;28;20417;-71
2021/03/20 00:07:59;;;;;;;24.35;10.10;;;;;;;1.80;78.23;102794.00;5092918;28;20032;-70
2021/03/20 00:10:25;;;;;;;24.05;10.05;;;;;;;1.73;78.20;102801.38;5095093;28;20078;-71
2021/03/20 00:12:52;;;;;;;24.50;10.30;;;;;;;1.74;77.75;102797.06;5094680;28;20030;-71
2021/03/20 00:15:21;;;;;;;24.27;10.48;;;;;;;1.72;78.24;102806.50;5094509;28;20475;-69
2021/03/20 00:17:47;;;;;;;23.48;10.25;;;;;;;1.71;78.08;102802.97;5094821;28;20063;-66
2021/03/20 00:20:16;;;;;;;24.13;10.40;;;;;;;1.66;77.99;102801.75;5093779;28;20079;-68
2021/03/20 00:22:41;;;;;;;26.42;10.60;;;;;;;1.62;78.25;102806.63;5095048;28;20096;-69
2021/03/20 00:25:07;;;;;;;24.70;10.90;;;;;;;1.57;78.03;102808.88;5094646;28;20441;-68
2021/03/20 00:27:34;;;;;;;25.15;10.55;;;;;;;1.56;78.11;102804.47;5093908;28;20016;-69
2021/03/20 00:29:59;;;;;;;24.23;10.30;;;;;;;1.52;78.90;102805.94;5094641;28;20016;-69
2021/03/20 00:32:25;;;;;;;25.48;10.70;;;;;;;1.48;78.82;102803.00;5093796;28;20021;-68
2021/03/20 00:34:51;;;;;;;25.13;10.63;;;;;;;1.45;79.08;102787.16;5093564;28;20024;-69
2021/03/20 00:37:16;;;;;;;24.92;9.98;;;;;;;1.39;79.15;102796.31;5092683;28;20031;-70
2021/03/20 00:39:43;;;;;;;26.70;10.73;;;;;;;1.38;79.10;102802.34;5094044;28;20051;-70
2021/03/20 00:42:08;;;;;;;25.95;10.57;;;;;;;1.35;79.29;102791.66;5092919;28;20463;-70
2021/03/20 00:44:34;;;;;;;25.02;10.95;;;;;;;1.32;78.90;102796.66;5093008;28;20070;-69
2021/03/20 00:46:59;;;;;;;25.23;11.00;;;;;;;1.32;78.81;102803.59;5094053;28;20028;-69
2021/03/20 00:49:25;;;;;;;23.52;10.88;;;;;;;1.31;78.75;102809.59;5093294;28;20028;-68
2021/03/20 00:51:50;;;;;;;26.35;11.18;;;;;;;1.25;78.54;102816.97;5093238;28;20481;-71
2021/03/20 00:54:15;;;;;;;24.92;10.43;;;;;;;1.21;79.08;102814.13;5093935;28;20482;-71
2021/03/20 00:56:41;;;;;;;24.63;10.38;;;;;;;1.21;78.99;102814.13;5092381;28;20387;-69
2021/03/20 00:59:06;;;;;;;25.42;10.80;;;;;;;1.23;79.05;102815.94;5093559;28;20063;-70
2021/03/20 01:01:31;;;;;;;25.30;10.98;;;;;;;1.19;78.99;102812.19;5092256;28;20071;-69
2021/03/20 01:03:56;;;;;;;28.13;10.95;;;;;;;1.16;79.58;102817.19;5093943;28;20059;-72
2021/03/20 01:06:27;;;;;;;26.88;10.55;;;;;;;1.18;79.26;102818.19;5092829;28;20052;-71
2021/03/20 01:08:54;;;;;;;27.02;11.07;;;;;;;1.15;79.89;102815.38;5092798;28;20031;-71
2021/03/20 01:11:21;;;;;;;24.92;10.70;;;;;;;1.19;79.48;102814.81;5092325;28;20031;-71
2021/03/20 01:13:46;;;;;;;25.70;11.25;;;;;;;1.23;79.43;102826.38;5092492;28;20031;-69
2021/03/20 01:16:12;;;;;;;24.63;11.05;;;;;;;1.31;79.19;102831.34;5092609;28;20146;-68
2021/03/20 01:18:39;;;;;;;24.88;11.10;;;;;;;1.40;79.11;102828.53;5093462;28;20110;-71
2021/03/20 01:21:06;;;;;;;25.15;10.80;;;;;;;1.45;78.67;102829.75;5093106;28;20052;-71
2021/03/20 01:23:32;;;;;;;25.35;10.82;;;;;;;1.46;78.59;102828.06;5094795;28;20471;-69
2021/03/20 01:25:57;;;;;;;25.45;11.07;;;;;;;1.41;78.44;102832.03;5092377;28;20039;-68
2021/03/20 01:28:28;;;;;;;25.40;11.25;;;;;;;1.31;79.26;102833.97;5092794;28;20024;-71
2021/03/20 01:30:54;;;;;;;24.95;11.20;;;;;;;1.18;79.71;102839.97;5092464;28;20032;-69
2021/03/20 01:33:20;;;;;;;26.20;11.63;;;;;;;1.10;79.18;102840.19;5093422;28;20076;-71
2021/03/20 01:35:46;;;;;;;26.02;11.93;;;;;;;1.07;79.80;102834.75;5093427;28;20031;-68
2021/03/20 01:38:12;;;;;;;26.77;11.90;;;;;;;1.00;79.96;102846.41;5092674;28;20107;-69
2021/03/20 01:41:05;;;;;;;25.08;11.63;;;;;;;0.96;79.86;102846.94;5091653;28;20150;-69
2021/03/20 01:43:31;;;;;;;;;;;;;;;0.91;76.70;102851.81;5082286;28;20036;-70
2021/03/20 01:46:31;;;;;;;25.50;11.48;;;;;;;0.85;78.08;102852.25;5093973;28;19916;-72
2021/03/20 01:48:56;;;;;;;26.02;11.82;;;;;;;0.76;79.75;102851.56;5089152;28;20494;-72
2021/03/20 01:51:22;;;;;;;26.08;12.00;;;;;;;0.72;80.24;102859.03;5094029;28;20075;-72
2021/03/20 01:53:53;;;;;;;26.02;11.60;;;;;;;0.73;80.12;102860.81;5091967;28;20173;-72
2021/03/20 01:56:27;;;;;;;25.65;12.13;;;;;;;0.69;80.34;102863.19;5091482;28;20047;-71
2021/03/20 01:58:53;;;;;;;28.15;12.02;;;;;;;0.69;81.11;102863.19;5091208;28;20028;-71
2021/03/20 02:01:26;;;;;;;25.85;12.07;;;;;;;0.60;80.97;102867.72;5093221;28;20054;-72
2021/03/20 02:03:54;;;;;;;25.75;12.75;;;;;;;0.55;81.04;102861.22;5090853;28;20035;-72
2021/03/20 02:06:19;;;;;;;26.75;12.05;;;;;;;0.49;81.26;102860.75;5091861;28;20168;-71
2021/03/20 02:08:47;;;;;;;27.17;12.63;;;;;;;0.45;82.05;102856.09;5092615;28;20054;-72
2021/03/20 02:11:54;;;;;;;27.17;12.27;;;;;;;0.44;79.90;102852.59;5090163;28;20038;-72
2021/03/20 02:14:43;;;;;;;26.65;12.38;;;;;;;0.39;81.94;102853.03;4991056;28;20041;-72
2021/03/20 02:17:31;;;;;;;26.65;12.48;;;;;;;0.30;80.97;102846.31;4989418;28;20038;-72
2021/03/20 02:20:18;;;;;;;26.38;12.35;;;;;;;0.28;80.89;102842.69;4989676;28;20101;-72
2021/03/20 02:23:26;;;;;;;28.63;12.93;;;;;;;0.22;81.19;102844.81;4989601;28;20181;-72
2021/03/20 02:26:09;;;;;;;26.05;12.35;;;;;;;0.16;81.26;102832.22;4989851;28;20041;-71
2021/03/20 02:28:35;;;;;;;26.85;13.40;;;;;;;0.08;81.68;102842.81;4987125;28;20113;-69
2021/03/20 02:31:12;;;;;;;27.98;12.98;;;;;;;0.03;82.05;102834.66;4990640;28;20549;-69
2021/03/20 02:33:55;;;;;;;27.50;13.18;;;;;;;-0.01;81.05;102833.50;4989838;28;20038;-68
2021/03/20 02:36:43;;;;;;;30.25;12.82;;;;;;;-0.04;81.06;102832.38;4991702;28;20468;-72
2021/03/20 02:39:38;;;;;;;27.25;12.48;;;;;;;-0.06;81.04;102831.31;4989021;28;20073;-69
2021/03/20 02:42:13;;;;;;;27.88;13.05;;;;;;;-0.11;82.05;102830.06;4892065;29;20048;-68
2021/03/20 02:45:09;;;;;;;29.38;13.50;;;;;;;-0.18;81.12;102834.75;4895179;29;20097;-64
2021/03/20 02:47:51;;;;;;;28.23;13.15;;;;;;;-0.20;82.37;102831.13;4870851;29;20039;-71
2021/03/20 02:50:30;;;;;;;28.80;13.27;;;;;;;-0.19;81.91;102829.44;4931526;29;20491;-68
2021/03/20 02:53:05;;;;;;;28.70;13.57;;;;;;;-0.24;81.53;102828.16;4929591;29;20039;-68
2021/03/20 02:55:36;;;;;;;28.67;13.48;;;;;;;-0.29;82.01;102827.81;4930076;29;20048;-69
2021/03/20 02:58:09;;;;;;;28.05;13.82;;;;;;;-0.35;82.39;102829.88;4930458;29;20039;-71
2021/03/20 03:00:40;;;;;;;27.33;12.85;;;;;;;-0.38;82.16;102829.66;4930560;29;20503;-71
2021/03/20 03:03:07;;;;;;;28.15;13.02;;;;;;;-0.44;82.52;102837.84;4930274;29;20168;-71
2021/03/20 03:05:39;;;;;;;27.45;13.07;;;;;;;-0.51;82.83;102835.56;4926525;29;20036;-71
2021/03/20 03:08:39;;;;;;;28.50;13.50;;;;;;;-0.53;81.26;102837.13;4928631;29;20071;-71
2021/03/20 03:11:11;;;;;;;28.10;13.65;;;;;;;-0.53;83.01;102853.59;4914106;29;20480;-72
2021/03/20 03:13:40;;;;;;;28.98;14.05;;;;;;;-0.53;82.67;102851.00;4916593;29;20048;-73
2021/03/20 03:16:22;;;;;;;28.65;13.90;;;;;;;-0.55;83.30;102844.78;4917280;29;20043;-68
2021/03/20 03:18:54;;;;;;;29.13;14.18;;;;;;;-0.57;83.24;102848.03;4945892;28;20038;-69
2021/03/20 03:21:23;;;;;;;29.48;14.32;;;;;;;-0.59;83.67;102836.63;4992411;28;20086;-69
2021/03/20 03:23:49;;;;;;;28.08;13.90;;;;;;;-0.62;83.40;102846.78;4996214;28;20100;-69
2021/03/20 03:26:37;;;;;;;28.88;14.35;;;;;;;-0.63;83.08;102844.94;5010686;28;20037;-70
2021/03/20 03:29:13;;;;;;;29.83;14.23;;;;;;;-0.67;84.62;102845.47;5010790;28;20033;-73
2021/03/20 03:31:52;;;;;;;29.92;14.38;;;;;;;-0.68;84.05;102841.06;5009545;28;20026;-72
2021/03/20 03:34:25;;;;;;;29.23;14.25;;;;;;;-0.71;84.18;102841.72;5009211;28;20072;-72
2021/03/20 03:37:00;;;;;;;29.05;14.32;;;;;;;-0.72;83.09;102837.31;5010066;28;20038;-72
2021/03/20 03:39:46;;;;;;;28.33;13.73;;;;;;;-0.77;83.58;102834.34;5012418;28;20037;-72
2021/03/20 03:42:13;;;;;;;30.02;14.48;;;;;;;-0.80;84.08;102840.94;5015933;28;20032;-73
2021/03/20 03:44:42;;;;;;;28.98;13.90;;;;;;;-0.83;84.21;102841.63;5011601;28;20084;-72
2021/03/20 03:47:09;;;;;;;31.08;14.52;;;;;;;-0.83;84.25;102836.44;5044965;28;20040;-72
2021/03/20 03:49:34;;;;;;;29.40;14.30;;;;;;;-0.83;83.93;102844.22;5094155;28;20032;-73
2021/03/20 03:52:02;;;;;;;30.45;14.20;;;;;;;-0.88;84.03;102845.53;5095380;28;20035;-66
2021/03/20 03:54:28;;;;;;;29.67;14.40;;;;;;;-1.00;83.60;102844.53;5094118;28;20031;-72
2021/03/20 03:57:08;;;;;;;28.90;14.05;;;;;;;-1.07;83.57;102848.28;5076280;28;20020;-73
2021/03/20 03:59:34;;;;;;;29.02;14.07;;;;;;;-1.13;84.25;102843.47;5091524;28;20028;-71
2021/03/20 04:02:08;;;;;;;29.55;14.38;;;;;;;-1.15;84.63;102849.31;5095220;28;20027;-72
2021/03/20 04:05:02;;;;;;;30.00;14.93;;;;;;;-1.13;84.81;102843.47;5090639;28;20118;-72
2021/03/20 04:08:00;;;;;;;28.05;13.88;;;;;;;-1.18;83.61;102841.28;5092410;28;20040;-71
2021/03/20 04:10:33;;;;;;;31.17;15.02;;;;;;;-1.21;85.06;102843.63;5093663;28;20024;-72
2021/03/20 04:12:58;;;;;;;29.10;13.63;;;;;;;-1.26;85.02;102840.66;5100369;28;20024;-72
2021/03/20 04:15:44;;;;;;;29.23;14.38;;;;;;;-1.31;85.07;102852.31;5094857;28;20023;-66
2021/03/20 04:18:40;;;;;;;29.70;14.30;;;;;;;-1.34;84.25;102845.19;5092175;28;20131;-68
2021/03/20 04:21:37;;;;;;;29.42;14.50;;;;;;;-1.35;84.80;102845.06;5092545;28;20084;-71
2021/03/20 04:24:41;;;;;;;30.50;14.98;;;;;;;-1.36;84.26;102853.63;5092306;28;20040;-72
2021/03/20 04:27:28;;;;;;;29.35;14.55;;;;;;;-1.36;85.11;102854.53;5095712;28;20378;-73
2021/03/20 04:30:13;;;;;;;29.45;14.52;;;;;;;-1.38;84.53;102860.34;5092691;28;20521;-72
2021/03/20 04:32:53;;;;;;;28.50;13.95;;;;;;;-1.40;84.48;102860.22;5092420;28;20099;-71
2021/03/20 04:35:25;;;;;;;29.30;14.55;;;;;;;-1.42;85.07;102865.28;5094423;28;20023;-71
2021/03/20 04:37:52;;;;;;;29.35;14.18;;;;;;;-1.45;85.30;102870.22;5074179;28;20020;-71
2021/03/20 04:40:42;;;;;;;30.67;15.13;;;;;;;-1.48;84.11;102864.78;5094630;28;20548;-71
2021/03/20 04:43:11;;;;;;;29.20;13.88;;;;;;;-1.49;85.34;102869.81;5092479;28;20032;-72
2021/03/20 04:46:05;;;;;;;29.38;13.88;;;;;;;-1.53;83.79;102873.88;5094575;28;20027;-71
2021/03/20 04:48:40;;;;;;;28.92;13.63;;;;;;;-1.59;84.41;102887.22;5088551;28;20032;-71
2021/03/20 04:51:24;;;;;;;29.63;14.52;;;;;;;-1.63;84.16;102889.38;5094561;28;20026;-72
2021/03/20 04:53:56;;;;;;;29.27;14.27;;;;;;;-1.69;84.88;102894.03;5093921;28;20032;-72
2021/03/20 04:56:22;;;;;;;29.30;14.67;;;;;;;-1.78;84.97;102892.50;5093371;28;20043;-69
2021/03/20 04:58:57;;;;;;;30.15;14.57;;;;;;;-1.85;85.33;102892.72;5093215;28;20274;-72
2021/03/20 05:01:22;;;;;;;28.35;14.32;;;;;;;-1.93;85.33;102888.53;5092945;28;20031;-69
2021/03/20 05:03:53;;;;;;;30.02;14.60;;;;;;;-1.99;85.48;102893.19;5093771;28;20049;-71
2021/03/20 05:06:23;;;;;;;29.17;14.27;;;;;;;-2.04;85.71;102894.47;5093079;28;20032;-72
2021/03/20 05:09:00;;;;;;;28.38;14.35;;;;;;;-2.05;86.13;102892.63;5093377;28;20381;-72
2021/03/20 05:11:36;;;;;;;29.40;14.52;;;;;;;-2.06;86.29;102893.44;5093714;28;20063;-72
2021/03/20 05:14:10;;;;;;;29.45;14.10;;;;;;;-2.07;86.07;102894.19;5091763;28;20032;-66
2021/03/20 05:16:51;;;;;;;31.55;14.15;;;;;;;-2.11;85.25;102893.03;5090207;28;20379;-71
2021/03/20 05:19:19;;;;;;;30.27;13.85;;;;;;;-2.17;85.56;102888.22;5091520;28;20387;-71
2021/03/20 05:21:50;;;;;;;29.48;14.27;;;;;;;-2.25;85.98;102890.91;5092522;28;20028;-72
2021/03/20 05:24:20;;;;;;;28.48;13.45;;;;;;;-2.29;85.96;102892.28;5092341;28;20024;-72
2021/03/20 05:26:47;;;;;;;28.27;13.70;;;;;;;-2.31;86.13;102883.47;5092505;28;20051;-70
2021/03/20 05:29:12;;;;;;;28.15;13.50;;;;;;;-2.33;86.36;102883.34;5093257;28;20042;-73
2021/03/20 05:31:38;;;;;;;28.52;13.98;;;;;;;-2.35;86.26;102886.56;5091833;28;20024;-71
2021/03/20 05:34:29;;;;;;;29.45;13.90;;;;;;;-2.32;85.35;102890.31;5075058;28;20057;-70
2021/03/20 05:36:55;;;;;;;28.05;13.52;;;;;;;-2.32;86.20;102884.25;5091765;28;20509;-72
2021/03/20 05:39:21;;;;;;;31.30;14.40;;;;;;;-2.33;85.97;102887.59;5092119;28;20025;-73
2021/03/20 05:42:06;;;;;;;30.35;13.48;;;;;;;-2.32;85.44;102890.31;5092972;28;20073;-71
2021/03/20 05:44:43;;;;;;;29.15;13.57;;;;;;;-2.32;86.02;102890.31;5092523;28;20032;-69
2021/03/20 05:47:33;;;;;;;29.30;13.30;;;;;;;-2.33;85.94;102890.19;5090544;28;20028;-72
2021/03/20 05:50:02;;;;;;;28.88;13.38;;;;;;;-2.32;86.10;102886.84;5091745;28;20082;-71
2021/03/20 05:52:32;;;;;;;30.45;13.73;;;;;;;-2.32;86.04;102892.00;5091309;28;20039;-72
2021/03/20 05:55:30;;;;;;;28.40;13.23;;;;;;;-2.33;84.26;102895.38;5090561;28;20070;-72
2021/03/20 05:58:28;;;;;;;30.13;14.20;;;;;;;-2.33;85.61;102901.50;4991198;28;20093;-71
2021/03/20 06:01:20;;;;;;;27.98;13.43;;;;;;;-2.35;85.35;102899.53;4990640;28;20397;-72
2021/03/20 06:04:00;;;;;;;30.08;14.18;;;;;;;-2.37;86.09;102899.38;4993729;28;20132;-71
2021/03/20 06:06:31;;;;;;;28.75;14.02;;;;;;;-2.34;86.30;102903.94;4991857;28;20458;-72
2021/03/20 06:09:24;;;;;;;29.48;14.50;;;;;;;-2.29;85.38;102907.84;4990996;28;20088;-72
2021/03/20 06:12:11;;;;;;;31.20;13.70;;;;;;;-2.21;85.66;102909.44;4990266;28;20046;-67
2021/03/20 06:14:48;;;;;;;29.20;13.88;;;;;;;-2.20;85.74;102907.75;4989040;28;20096;-69
2021/03/20 06:17:34;;;;;;;30.38;14.70;;;;;;;-2.20;87.17;102921.63;4991729;28;20034;-71
2021/03/20 06:19:59;;;;;;;30.05;14.57;;;;;;;-2.19;87.83;102915.66;4988643;28;20081;-71
2021/03/20 06:22:53;;;;;;;30.95;14.77;;;;;;;-2.18;87.67;102922.66;4988887;28;20034;-72
2021/03/20 06:25:42;;;;;;;30.88;14.30;;;;;;;-2.16;86.52;102926.28;4990584;28;20030;-70
2021/03/20 06:28:09;;;;;;;30.15;13.73;;;;;;;-2.14;86.99;102913.47;4990858;28;20042;-72
2021/03/20 06:30:42;;;;;;;29.13;13.98;;;;;;;-2.07;87.15;102925.31;4989710;28;20026;-70
2021/03/20 06:33:23;;;;;;;29.55;14.07;;;;;;;-1.99;86.50;102926.91;5024113;28;20047;-73
2021/03/20 06:36:01;;;;;;;30.70;14.55;;;;;;;-1.88;87.08;102938.22;5090365;28;20364;-73
2021/03/20 06:38:35;;;;;;;29.95;14.40;;;;;;;-1.79;86.73;102939.00;5091725;28;20433;-68
2021/03/20 06:41:14;;;;;;;27.50;13.43;;;;;;;-1.72;86.02;102937.88;5088301;28;20028;-69
2021/03/20 06:43:46;;;;;;;29.08;13.65;;;;;;;-1.64;86.29;102940.38;5092193;28;20028;-69
2021/03/20 06:46:19;;;;;;;28.98;14.20;;;;;;;-1.53;86.35;102946.50;5090058;28;20016;-72
2021/03/20 06:48:45;;;;;;;29.92;15.00;;;;;;;-1.44;86.60;102949.88;5092093;28;20111;-69
2021/03/20 06:51:11;;;;;;;30.23;14.30;;;;;;;-1.37;86.32;102953.00;5091239;28;20035;-69
2021/03/20 06:53:54;;;;;;;30.77;14.57;;;;;;;-1.31;86.04;102950.94;5088129;28;20024;-70
2021/03/20 06:56:20;;;;;;;29.30;14.43;;;;;;;-1.25;84.29;102948.88;5090908;28;20032;-69
2021/03/20 06:58:45;;;;;;;28.95;14.43;;;;;;;-1.17;83.75;102950.44;5091741;28;20081;-73
2021/03/20 07:01:21;;;;;;;28.48;14.70;;;;;;;-1.07;83.51;102941.75;5092047;28;20016;-67
2021/03/20 07:04:11;;;;;;;29.50;14.70;;;;;;;-0.92;82.46;102955.13;5090037;28;20043;-69
2021/03/20 07:06:46;;;;;;;27.85;13.63;;;;;;;-0.79;82.83;102955.38;5092066;28;20391;-69
2021/03/20 07:09:11;;;;;;;29.40;14.32;;;;;;;-0.67;82.54;102964.97;5090935;28;20032;-68
2021/03/20 07:11:44;;;;;;;28.38;14.20;;;;;;;-0.59;81.11;102971.75;5091989;28;20376;-71
2021/03/20 07:14:41;;;;;;;29.63;13.73;;;;;;;-0.49;80.87;102966.53;5095958;28;20413;-72
2021/03/20 07:17:42;;;;;;;28.90;13.90;;;;;;;-0.39;80.21;102979.50;5093560;28;20036;-73
2021/03/20 07:20:16;;;;;;;27.52;13.27;;;;;;;-0.28;79.69;102979.47;5079423;28;20398;-73
2021/03/20 07:23:12;;;;;;;27.60;13.23;;;;;;;-0.20;79.02;102988.81;5093772;28;20026;-71
2021/03/20 07:25:51;;;;;;;27.42;13.13;;;;;;;-0.20;78.73;102968.03;5096669;28;20028;-74
2021/03/20 07:28:29;;;;;;;26.98;12.98;;;;;;;-0.04;78.55;102986.69;5096781;28;20478;-74
2021/03/20 07:31:13;;;;;;;26.75;12.10;;;;;;;0.06;77.87;102993.56;5079388;28;20042;-75
2021/03/20 07:33:48;;;;;;;28.23;12.68;;;;;;;0.14;78.07;102986.38;5076940;28;20055;-73
2021/03/20 07:36:17;;;;;;;27.23;11.95;;;;;;;0.37;76.98;102989.94;5094293;28;20399;-72
2021/03/20 07:38:45;;;;;;;26.88;12.68;;;;;;;0.51;76.38;102982.44;5094795;28;20097;-72
2021/03/20 07:41:13;;;;;;;25.85;11.75;;;;;;;0.74;75.12;102987.63;5077004;28;20111;-71
2021/03/20 07:43:39;;;;;;;26.73;12.35;;;;;;;0.95;75.44;102985.81;5095580;28;20028;-71
2021/03/20 07:46:36;;;;;;;26.40;12.18;;;;;;;1.16;76.01;102995.25;5095614;28;20028;-72
2021/03/20 07:49:16;;;;;;;25.58;11.13;;;;;;;1.36;73.69;102998.50;5095278;28;20039;-71
2021/03/20 07:52:24;;;;;;;25.13;11.30;;;;;;;1.69;76.22;102997.53;5095448;28;20096;-75
2021/03/20 07:55:11;;;;;;;24.92;10.68;;;;;;;2.00;73.70;103005.03;5080964;28;21237;-74
2021/03/20 07:57:37;;;;;;;24.63;11.07;;;;;;;1.92;71.04;103006.16;5093026;28;20107;-75
2021/03/20 08:00:20;;;;;;;23.65;10.38;;;;;;;2.01;70.43;102995.47;5094983;28;20099;-74
2021/03/20 08:02:46;;;;;;;24.33;10.82;;;;;;;2.06;70.17;102997.63;5089272;28;20356;-75
2021/03/20 08:05:17;;;;;;;23.10;10.32;;;;;;;2.27;70.23;102994.78;5093018;28;20078;-64
2021/03/20 08:07:47;;;;;;;23.58;10.10;;;;;;;2.40;68.37;102992.28;5094631;28;20471;-65
2021/03/20 08:10:20;;;;;;;24.55;10.50;;;;;;;2.46;68.88;102990.88;5093879;28;20081;-64
2021/03/20 08:13:25;;;;;;;22.92;9.80;;;;;;;2.56;69.01;102988.13;5092940;28;20032;-65
2021/03/20 08:15:55;;;;;;;23.40;8.98;;;;;;;2.66;65.72;102985.38;5094330;28;20039;-64
2021/03/20 08:18:38;;;;;;;22.20;9.30;;;;;;;2.95;67.42;102983.91;5095173;28;20036;-65
2021/03/20 08:21:26;;;;;;;22.08;8.90;;;;;;;3.06;66.58;102967.28;5095678;28;20587;-64
2021/03/20 08:24:10;;;;;;;21.70;8.48;;;;;;;3.20;64.72;102975.16;5092274;28;20093;-65
2021/03/20 08:26:45;;;;;;;20.98;7.85;;;;;;;3.34;63.73;102974.38;5091804;28;20020;-65
2021/03/20 08:29:29;;;;;;;20.35;7.60;;;;;;;3.63;65.00;102975.44;5093545;28;20028;-65
2021/03/20 08:32:32;;;;;;;20.17;7.40;;;;;;;3.99;63.02;102979.59;5097462;28;20035;-63
2021/03/20 08:35:16;;;;;;;20.00;7.03;;;;;;;4.29;63.12;102977.13;5098746;28;20039;-66
2021/03/20 08:38:03;;;;;;;20.92;7.25;;;;;;;4.43;58.98;102970.16;5091318;28;20456;-66
2021/03/20 08:40:40;;;;;;;20.50;7.05;;;;;;;4.66;56.54;102970.69;5094371;28;20070;-65
2021/03/20 08:43:17;;;;;;;19.52;7.20;;;;;;;4.83;57.05;102975.25;5090642;28;20047;-65
2021/03/20 08:45:56;;;;;;;21.00;7.10;;;;;;;4.85;57.08;102973.66;5091094;28;20024;-65
2021/03/20 08:48:54;;;;;;;22.00;7.15;;;;;;;4.85;57.96;102972.75;5092590;28;20112;-65
2021/03/20 08:51:36;;;;;;;20.38;6.97;;;;;;;4.83;54.50;102972.63;5092690;28;20028;-65
2021/03/20 08:54:31;;;;;;;20.13;7.47;;;;;;;5.13;54.66;102974.44;5094078;28;20024;-67
2021/03/20 08:57:01;;;;;;;20.50;7.18;;;;;;;5.68;53.09;102974.16;5093196;28;20024;-66
2021/03/20 08:59:43;;;;;;;20.73;7.22;;;;;;;6.11;53.72;102977.56;5093009;28;20115;-67
2021/03/20 09:02:24;;;;;;;20.35;7.07;;;;;;;6.58;54.52;102983.69;5092600;28;20081;-66
2021/03/20 09:05:07;;;;;;;19.55;6.55;;;;;;;6.74;49.38;102968.72;5091683;28;20032;-66
2021/03/20 09:07:41;;;;;;;20.40;6.88;;;;;;;6.82;47.79;102972.69;5093149;28;20028;-65
2021/03/20 09:10:14;;;;;;;19.70;6.97;;;;;;;7.16;48.03;102977.09;5073971;28;20570;-64
2021/03/20 09:12:44;;;;;;;20.42;7.70;;;;;;;7.72;46.82;102980.84;5092317;28;20028;-65
2021/03/20 09:15:32;;;;;;;20.30;7.97;;;;;;;8.35;48.44;102973.34;5094801;28;20028;-65
2021/03/20 09:18:01;;;;;;;19.65;7.43;;;;;;;8.99;43.17;102985.09;5089956;28;20038;-64
2021/03/20 09:20:39;;;;;;;18.92;6.68;;;;;;;9.47;41.56;102973.09;5094571;28;20048;-65
2021/03/20 09:23:06;;;;;;;19.13;6.85;;;;;;;10.10;40.25;102973.94;5093544;28;20067;-65
2021/03/20 09:25:31;;;;;;;20.42;7.63;;;;;;;10.38;38.90;102969.81;5092682;28;20446;-64
2021/03/20 09:28:02;;;;;;;19.15;6.55;;;;;;;10.56;39.38;102979.28;5092709;28;20056;-66
2021/03/20 09:30:38;;;;;;;18.92;7.10;;;;;;;10.74;39.06;102969.38;5093206;28;20471;-67
2021/03/20 09:33:29;;;;;;;20.02;7.53;;;;;;;11.11;38.60;102976.03;5090379;28;20035;-67
2021/03/20 09:36:07;;;;;;;20.33;7.53;;;;;;;10.85;38.68;102974.16;5073423;28;20033;-67
2021/03/20 09:38:35;;;;;;;19.58;7.47;;;;;;;11.34;37.98;102983.88;5093372;28;20073;-69
2021/03/20 09:41:08;;;;;;;19.10;7.15;;;;;;;12.04;35.71;102973.88;5093479;28;20028;-68
2021/03/20 09:43:38;;;;;;;19.42;6.75;;;;;;;12.31;35.66;102972.97;5092480;28;20030;-69
2021/03/20 09:46:34;;;;;;;19.23;6.72;;;;;;;12.87;38.03;102980.81;5090886;28;20455;-70
2021/03/20 09:49:02;;;;;;;17.83;6.43;;;;;;;13.25;32.45;102984.56;5094973;28;20028;-69
2021/03/20 09:51:49;;;;;;;18.02;5.80;;;;;;;13.48;34.45;102988.72;5093081;28;20089;-68
2021/03/20 09:54:24;;;;;;;16.48;5.20;;;;;;;13.58;33.94;102985.44;5090873;28;20462;-68
2021/03/20 09:56:53;;;;;;;18.00;5.38;;;;;;;13.70;31.58;102977.78;5090424;28;20043;-67
2021/03/20 09:59:27;;;;;;;16.23;5.50;;;;;;;13.91;32.47;102980.06;5092149;28;20363;-70
2021/03/20 10:01:57;;;;;;;16.95;5.75;;;;;;;14.01;30.42;102981.19;5092118;28;20050;-69
2021/03/20 10:04:35;;;;;;;18.42;5.82;;;;;;;14.23;30.58;102966.63;5093394;28;20470;-68
2021/03/20 10:07:24;;;;;;;18.90;6.43;;;;;;;14.20;32.32;102968.31;5095502;28;20479;-68
2021/03/20 10:09:49;;;;;;;17.75;5.95;;;;;;;14.23;30.46;102963.97;5028331;28;20041;-68
2021/03/20 10:12:20;;;;;;;18.65;6.00;;;;;;;14.19;30.85;102966.53;5028507;28;20048;-73
2021/03/20 10:14:56;;;;;;;17.13;5.50;;;;;;;14.53;30.11;102959.28;5027380;28;20037;-69
2021/03/20 10:17:28;;;;;;;18.35;5.93;;;;;;;14.58;29.92;102966.53;5028921;28;20048;-72
2021/03/20 10:20:18;;;;;;;16.33;5.20;;;;;;;15.22;29.75;102959.81;5028863;28;20436;-75
2021/03/20 10:23:00;;;;;;;16.17;5.10;;;;;;;15.39;28.73;102958.38;5028085;28;20551;-73
2021/03/20 10:25:25;;;;;;;16.55;5.50;;;;;;;16.41;25.75;102948.41;5028977;28;20033;-74
2021/03/20 10:28:01;;;;;;;17.63;5.70;;;;;;;16.62;27.24;102950.47;5028503;28;20053;-75
2021/03/20 10:30:34;;;;;;;18.63;5.78;;;;;;;16.91;27.47;102948.16;5028991;28;20047;-71
2021/03/20 10:33:12;;;;;;;18.42;5.82;;;;;;;17.16;27.69;102948.44;5028546;28;20600;-68
2021/03/20 10:35:39;;;;;;;17.33;5.60;;;;;;;17.39;25.33;102944.19;5028128;28;20030;-74
2021/03/20 10:38:23;;;;;;;17.88;5.88;;;;;;;17.77;25.52;102934.72;5028123;28;20071;-74
2021/03/20 10:41:13;;;;;;;19.33;5.70;;;;;;;17.60;26.11;102943.50;5027948;28;20037;-74
2021/03/20 10:43:48;;;;;;;16.95;5.85;;;;;;;17.22;25.13;102935.13;5026341;28;20033;-72
2021/03/20 10:46:32;;;;;;;16.85;5.80;;;;;;;17.68;26.30;102929.28;5042128;28;20032;-73
2021/03/20 10:49:02;;;;;;;16.73;5.35;;;;;;;18.02;24.00;102919.75;5094109;28;20024;-74
2021/03/20 10:51:37;;;;;;;16.25;5.50;;;;;;;18.83;23.83;102929.03;5094125;28;20030;-73
2021/03/20 10:54:20;;;;;;;16.70;5.63;;;;;;;19.64;23.75;102927.34;5095832;28;20476;-71
2021/03/20 10:56:48;;;;;;;17.45;5.80;;;;;;;19.54;21.98;102922.88;5094734;28;20108;-71
2021/03/20 10:59:23;;;;;;;17.10;5.90;;;;;;;19.37;23.74;102923.78;5095706;28;20502;-70
2021/03/20 11:01:48;;;;;;;17.73;5.80;;;;;;;19.63;21.65;102925.56;5094401;28;20360;-68
2021/03/20 11:04:27;;;;;;;16.50;5.55;;;;;;;20.35;22.77;102922.75;5094440;28;20065;-67
2021/03/20 11:06:54;;;;;;;16.15;5.13;;;;;;;20.73;20.73;102924.38;5097010;28;20490;-73
2021/03/20 11:09:23;;;;;;;16.27;5.25;;;;;;;20.77;20.78;102917.22;5093819;28;20020;-71
2021/03/20 11:11:55;;;;;;;16.73;5.68;;;;;;;21.43;20.64;102905.09;5095200;28;20059;-73
2021/03/20 11:14:21;;;;;;;16.52;5.30;;;;;;;21.75;20.09;102907.50;5095491;28;20085;-73
2021/03/20 11:17:00;;;;;;;15.73;5.50;;;;;;;21.82;20.79;102900.28;5094824;28;20032;-72
2021/03/20 11:19:38;;;;;;;16.38;5.60;;;;;;;21.70;20.01;102887.84;5094738;28;20486;-72
2021/03/20 11:22:18;;;;;;;15.40;5.30;;;;;;;22.18;19.63;102892.69;5093968;28;20032;-71
2021/03/20 11:24:46;;;;;;;16.48;5.80;;;;;;;22.62;17.35;102893.94;5095102;28;20882;-72
2021/03/20 11:27:26;;;;;;;17.45;5.65;;;;;;;23.37;19.37;102891.00;5097069;28;20103;-72
2021/03/20 11:29:56;;;;;;;16.40;5.35;;;;;;;24.09;17.34;102896.91;5095354;28;20035;-73
2021/03/20 11:32:25;;;;;;;15.57;5.30;;;;;;;24.40;17.67;102895.38;5093806;28;20020;-71
2021/03/20 11:35:05;;;;;;;17.23;5.80;;;;;;;24.54;17.64;102885.16;5095029;28;20028;-72
2021/03/20 11:37:31;;;;;;;16.38;5.95;;;;;;;23.59;17.39;102878.03;5094883;28;20439;-73
2021/03/20 11:39:59;;;;;;;16.95;5.80;;;;;;;23.07;17.71;102874.41;5095234;28;20028;-72
2021/03/20 11:42:30;;;;;;;17.05;5.50;;;;;;;23.11;18.17;102877.97;5094701;28;20047;-72
2021/03/20 11:44:57;;;;;;;16.40;5.47;;;;;;;23.28;17.57;102870.47;5094005;28;20351;-72
2021/03/20 11:47:27;;;;;;;17.10;5.50;;;;;;;22.92;18.33;102870.16;5094474;28;20044;-71
2021/03/20 11:49:56;;;;;;;16.95;5.72;;;;;;;23.06;18.22;102866.34;5094991;28;20454;-72
2021/03/20 11:52:27;;;;;;;16.95;5.70;;;;;;;23.20;18.04;102866.13;5095093;28;20493;-72